createdAt,value
2019-05-15T00:01:19.421Z,8.00
2019-05-15T00:06:23.794Z,7.80
2019-05-15T00:11:32.279Z,10.71
2019-05-15T00:16:39.964Z,9.67
2019-05-15T00:21:45.064Z,9.33
2019-05-15T00:26:50.271Z,11.67
2019-05-15T00:31:53.766Z,8.00
2019-05-15T00:36:58.384Z,9.00
2019-05-15T00:42:08.145Z,8.78
2019-05-15T00:47:13.394Z,10.00
2019-05-15T00:52:21.204Z,10.17
2019-05-15T00:57:28.329Z,13.43
2019-05-15T01:02:34.851Z,13.25
2019-05-15T01:07:39.979Z,10.00
2019-05-15T01:12:44.339Z,10.50
2019-05-15T01:17:49.205Z,7.67
2019-05-15T01:22:53.179Z,10.00
2019-05-15T01:27:58.323Z,7.00
2019-05-15T01:33:01.678Z,9.00
2019-05-15T01:38:04.989Z,7.00
2019-05-15T01:43:09.126Z,8.00
2019-05-15T01:48:16.039Z,9.00
2019-05-15T01:53:21.135Z,13.00
2019-05-15T01:58:28.750Z,7.00
2019-05-15T02:03:35.503Z,8.83
2019-05-15T02:08:41.263Z,12.43
2019-05-15T02:13:48.045Z,9.00
2019-05-15T02:18:52.201Z,6.83
2019-05-15T02:23:58.647Z,8.00
2019-05-15T02:29:02.235Z,7.00
2019-05-15T02:34:09.768Z,11.83
2019-05-15T02:39:12.207Z,8.00
2019-05-15T02:44:20.198Z,8.80
2019-05-15T02:49:30.294Z,8.22
2019-05-15T02:54:33.632Z,7.00
2019-05-15T02:59:39.842Z,5.33
2019-05-15T03:04:45.172Z,13.29
2019-05-15T03:09:53.929Z,10.00
2019-05-15T03:15:00.140Z,14.00
2019-05-15T03:20:09.915Z,9.17
2019-05-15T03:25:18.954Z,9.00
2019-05-15T03:30:25.359Z,8.70
2019-05-15T03:35:32.627Z,9.83
2019-05-15T03:40:35.643Z,5.83
2019-05-15T03:45:41.964Z,9.17
2019-05-15T03:50:48.660Z,10.33
2019-05-15T03:55:58.956Z,11.75
2019-05-15T04:01:02.380Z,7.00
2019-05-15T04:06:05.415Z,6.67
2019-05-15T04:11:11.913Z,7.00
2019-05-15T04:16:20.673Z,9.73
2019-05-15T04:21:26.631Z,6.00
2019-05-15T04:26:34.756Z,10.33
2019-05-15T04:31:51.914Z,6.80
2019-05-15T04:36:44.753Z,6.60
2019-05-15T04:41:53.905Z,11.91
2019-05-15T04:46:59.482Z,6.40
2019-05-15T04:52:05.178Z,6.60
2019-05-15T04:57:10.637Z,3.67
2019-05-15T05:02:19.277Z,8.71
2019-05-15T05:07:21.996Z,9.50
2019-05-15T05:12:28.956Z,10.00
2019-05-15T05:17:32.486Z,11.33
2019-05-15T05:22:39.332Z,11.14
2019-05-15T05:27:43.111Z,16.00
2019-05-15T05:32:49.646Z,8.40
2019-05-15T05:37:54.570Z,9.67
2019-05-15T05:43:02.407Z,14.33
2019-05-15T05:48:08.694Z,11.67
2019-05-15T05:53:15.317Z,11.17
2019-05-15T05:58:19.859Z,6.33
2019-05-15T06:03:23.592Z,9.00
2019-05-15T06:08:32.913Z,15.00
2019-05-15T06:13:38.519Z,10.43
2019-05-15T06:18:44.206Z,12.43
2019-05-15T06:23:55.160Z,8.50
2019-05-15T06:28:58.289Z,11.29
2019-05-15T06:34:08.165Z,11.33
2019-05-15T06:39:13.262Z,9.40
2019-05-15T06:44:18.837Z,8.33
2019-05-15T06:49:28.653Z,11.20
2019-05-15T06:54:37.810Z,8.80
2019-05-15T06:59:42.471Z,15.86
2019-05-15T07:04:48.807Z,14.71
2019-05-15T07:09:58.203Z,6.00
2019-05-15T07:15:09.161Z,13.71
2019-05-15T07:20:18.549Z,16.14
2019-05-15T07:25:22.238Z,12.17
2019-05-15T07:30:28.619Z,11.67
2019-05-15T07:35:33.402Z,12.71
2019-05-15T07:40:38.906Z,31.00
2019-05-15T07:45:44.092Z,15.50
2019-05-15T07:50:50.000Z,37.50
2019-05-15T07:56:00.541Z,15.00
2019-05-15T08:01:06.005Z,14.71
2019-05-15T08:06:10.832Z,23.29
2019-05-15T08:11:23.922Z,12.43
2019-05-15T08:16:23.163Z,11.67
2019-05-15T08:21:29.260Z,15.57
2019-05-15T08:26:35.174Z,14.29
2019-05-15T08:31:41.966Z,12.86
2019-05-15T08:36:49.569Z,20.37
2019-05-15T08:41:53.177Z,20.75
2019-05-15T08:46:59.255Z,25.62
2019-05-15T08:52:10.139Z,16.09
2019-05-15T08:57:13.861Z,19.00
2019-05-15T09:02:20.832Z,16.43
2019-05-15T09:07:28.840Z,15.00
2019-05-15T09:12:35.309Z,15.29
2019-05-15T09:17:40.099Z,13.33
2019-05-15T09:22:44.945Z,19.14
2019-05-15T09:27:49.346Z,14.50
2019-05-15T09:32:58.878Z,13.86
2019-05-15T09:38:02.330Z,11.33
2019-05-15T09:43:10.757Z,11.00
2019-05-15T09:48:14.861Z,27.86
2019-05-15T09:53:19.360Z,12.00
2019-05-15T09:58:25.732Z,15.00
2019-05-15T10:03:31.077Z,10.00
2019-05-15T10:08:39.525Z,13.43
2019-05-15T10:13:43.476Z,28.14
2019-05-15T10:18:50.987Z,10.67
2019-05-15T10:23:58.787Z,11.71
2019-05-15T10:29:09.081Z,24.75
2019-05-15T10:34:13.112Z,8.67
2019-05-15T10:39:19.711Z,10.67
2019-05-15T10:44:28.537Z,9.83
2019-05-15T10:49:32.980Z,9.83
2019-05-15T10:54:38.229Z,12.29
2019-05-15T10:59:47.794Z,9.00
2019-05-15T11:04:52.118Z,9.83
2019-05-15T11:09:58.054Z,9.00
2019-05-15T11:15:02.105Z,8.50
2019-05-15T11:20:08.409Z,9.00
2019-05-15T11:25:11.927Z,8.40
2019-05-15T11:30:19.234Z,10.43
2019-05-15T11:35:23.642Z,10.67
2019-05-15T11:40:28.387Z,9.00
2019-05-15T11:45:33.015Z,8.00
2019-05-15T11:50:40.128Z,11.00
2019-05-15T11:55:44.298Z,8.67
2019-05-15T12:00:49.255Z,12.50
2019-05-15T12:05:53.895Z,10.83
2019-05-15T12:10:59.129Z,7.00
2019-05-15T12:16:03.640Z,12.83
2019-05-15T12:21:12.144Z,9.40
2019-05-15T12:26:17.279Z,10.17
2019-05-15T12:31:24.725Z,9.33
2019-05-15T12:36:50.811Z,8.83
2019-05-15T13:02:03.235Z,11.00
2019-05-15T13:07:13.768Z,12.00
2019-05-15T13:12:14.375Z,10.83
2019-05-15T13:17:18.919Z,12.33
2019-05-15T13:22:28.018Z,9.00
2019-05-15T13:27:35.336Z,15.33
2019-05-15T13:32:41.259Z,14.29
2019-05-15T13:37:45.747Z,12.17
2019-05-15T13:42:51.727Z,24.00
2019-05-15T13:47:56.865Z,25.75
2019-05-15T13:53:02.858Z,22.25
2019-05-15T13:58:08.508Z,15.67
2019-05-15T14:03:14.029Z,14.00
2019-05-15T14:08:20.721Z,15.71
2019-05-15T14:13:28.769Z,14.71
2019-05-15T14:18:39.081Z,13.00
2019-05-15T14:23:45.195Z,17.75
2019-05-15T14:28:51.191Z,10.17
2019-05-15T14:33:58.008Z,11.00
2019-05-15T14:39:05.158Z,24.25
2019-05-15T14:44:17.580Z,19.43
2019-05-15T14:49:19.063Z,14.71
2019-05-15T14:54:26.116Z,12.67
2019-05-15T14:59:29.619Z,19.33
2019-05-15T15:04:35.516Z,18.00
2019-05-15T15:09:39.784Z,13.17
2019-05-15T15:14:44.147Z,15.00
2019-05-15T15:19:51.700Z,30.20
2019-05-15T15:24:59.784Z,12.57
2019-05-15T15:30:05.463Z,18.50
2019-05-15T15:35:09.892Z,7.33
2019-05-15T15:40:16.038Z,14.71
2019-05-15T15:45:20.594Z,15.57
2019-05-15T15:50:24.153Z,16.00
2019-05-15T15:55:29.812Z,15.14
2019-05-15T16:00:38.752Z,15.75
2019-05-15T16:05:45.563Z,17.43
2019-05-15T16:10:50.701Z,12.86
2019-05-15T16:15:57.950Z,20.57
2019-05-15T16:21:04.291Z,10.43
2019-05-15T16:26:10.997Z,15.00
2019-05-15T16:31:18.599Z,14.71
2019-05-15T16:36:25.296Z,21.00
2019-05-15T16:41:31.231Z,11.86
2019-05-15T16:46:38.886Z,16.00
2019-05-15T16:51:43.738Z,17.71
2019-05-15T16:56:49.136Z,15.00
2019-05-15T17:01:54.765Z,13.33
2019-05-15T17:07:00.103Z,11.57
2019-05-15T17:12:08.663Z,20.12
2019-05-15T17:17:13.146Z,15.00
2019-05-15T17:22:19.852Z,12.71
2019-05-15T17:27:25.820Z,14.00
2019-05-15T17:32:31.815Z,15.29
2019-05-15T17:37:38.080Z,17.25
2019-05-15T17:42:43.786Z,17.86
2019-05-15T17:47:48.976Z,19.00
2019-05-15T17:52:54.092Z,16.43
2019-05-15T17:58:01.272Z,15.71
2019-05-15T18:03:08.463Z,18.40
2019-05-15T18:08:11.184Z,17.50
2019-05-15T18:13:18.036Z,28.25
2019-05-15T18:18:22.482Z,16.83
2019-05-15T18:23:28.383Z,17.00
2019-05-15T18:28:38.800Z,20.43
2019-05-15T18:33:53.122Z,22.00
2019-05-15T18:38:49.585Z,25.37
2019-05-15T18:43:57.763Z,17.43
2019-05-15T18:49:00.836Z,20.00
2019-05-15T18:54:05.357Z,34.00
2019-05-15T18:59:10.786Z,20.29
2019-05-15T19:04:18.365Z,22.00
2019-05-15T19:09:21.439Z,24.00
2019-05-15T19:14:29.126Z,23.00
2019-05-15T19:19:35.097Z,21.71
2019-05-15T19:24:41.907Z,33.75
2019-05-15T19:29:50.191Z,20.75
2019-05-15T19:34:55.130Z,25.50
2019-05-15T19:39:59.222Z,28.00
2019-05-15T19:45:08.614Z,26.25
2019-05-15T19:50:17.629Z,22.50
2019-05-15T19:55:24.334Z,28.75
2019-05-15T20:00:33.622Z,26.87
2019-05-15T20:05:38.122Z,26.33
2019-05-15T20:10:44.428Z,27.37
2019-05-15T20:15:51.138Z,23.62
2019-05-15T20:20:58.331Z,33.00
2019-05-15T20:26:03.857Z,29.87
2019-05-15T20:31:09.012Z,31.00
2019-05-15T20:36:13.033Z,31.50
2019-05-15T20:41:18.710Z,27.50
2019-05-15T20:46:23.191Z,31.25
2019-05-15T20:51:29.094Z,31.00
2019-05-15T20:56:35.471Z,29.75
2019-05-15T21:01:40.323Z,27.00
2019-05-15T21:06:43.746Z,26.33
2019-05-15T21:11:53.802Z,30.62
2019-05-15T21:16:58.995Z,22.25
2019-05-15T21:22:05.160Z,27.87
2019-05-15T21:27:12.486Z,32.75
2019-05-15T21:32:19.025Z,27.67
2019-05-15T21:37:24.162Z,25.50
2019-05-15T21:42:30.071Z,26.00
2019-05-15T21:47:38.467Z,30.37
2019-05-15T21:52:49.066Z,41.37
2019-05-15T21:57:54.543Z,26.12
2019-05-15T22:03:02.721Z,27.29
2019-05-15T22:08:07.814Z,25.33
2019-05-15T22:13:14.538Z,28.75
2019-05-15T22:18:19.021Z,33.00
2019-05-15T22:23:27.907Z,25.75
2019-05-15T22:28:34.303Z,26.37
2019-05-15T22:33:41.871Z,26.43
2019-05-15T22:38:50.309Z,22.50
2019-05-15T22:43:58.152Z,26.75
2019-05-15T22:49:03.856Z,21.29
2019-05-15T22:54:10.499Z,25.00
2019-05-15T22:59:16.226Z,25.75
2019-05-15T23:04:20.298Z,25.50
2019-05-15T23:09:28.704Z,34.75
2019-05-15T23:14:32.880Z,26.00
2019-05-15T23:19:38.658Z,22.29
2019-05-15T23:24:44.364Z,27.13
2019-05-15T23:29:49.104Z,24.67
2019-05-15T23:34:53.495Z,24.33
2019-05-15T23:39:57.966Z,28.00
2019-05-15T23:45:04.912Z,22.00
2019-05-15T23:50:12.823Z,22.87
2019-05-15T23:55:21.004Z,23.87
